Silver Spring, Maryland
Current Conditions -  °F | °C
As of 8:30 PM on Thursday 27 Nov 2014 (Local Time) from KCGS Reporting Station
Broken Clouds Broken Clouds  
Wind Chill: 34°   Ceiling: 8500
Heat Index: 37°   Visibility: 10mi
Dew Point: 30°   Wind: 5mph
Humidity: 75%   Direction: 280°W
Pressure: 30.15"   Gusts: NA
Location:  39°N, 77.03°W
Report Text: KCGS 280130Z AUTO 28004KT 10SM BKN085 03/M01 A3015 RMK AO1
Loading
Personal Weather Stations






























Interactive Weather Map New forecast layout! Learn more

10-Day Weather Forecast

Advertisements
Track Severe Weather on mobile